Time;durP1;ratioP1;P1;durP2;ratioP2;P2;SDS_P1;SDS_P2;PMS_P1;PMS_P2;Temp;Humidity;BMP_temperature;BMP_pressure;BME280_temperature;BME280_humidity;BME280_pressure;Samples;Min_cycle;Max_cycle;Signal;HPM_P1;HPM_P2
2024/01/30 00:01:52;;;;;;;33.63;20.90;;;1.40;99.90;;;;;;5052749;28;20025;-52
2024/01/30 00:04:18;;;;;;;30.05;19.65;;;1.30;99.90;;;;;;5052656;28;20068;-52
2024/01/30 00:06:45;;;;;;;30.92;18.75;;;1.40;99.90;;;;;;5050734;28;20066;-52
2024/01/30 00:09:11;;;;;;;29.23;18.23;;;1.30;99.90;;;;;;5052748;28;20457;-52
2024/01/30 00:11:38;;;;;;;26.38;18.77;;;1.20;99.90;;;;;;5067114;28;20076;-52
2024/01/30 00:14:04;;;;;;;29.73;18.40;;;1.20;99.90;;;;;;5052614;28;20064;-52
2024/01/30 00:16:30;;;;;;;28.23;17.50;;;1.10;99.90;;;;;;5052442;28;20032;-52
2024/01/30 00:18:57;;;;;;;31.00;18.10;;;1.00;99.90;;;;;;5052566;28;20044;-53
2024/01/30 00:21:22;;;;;;;30.60;18.17;;;0.90;99.90;;;;;;5052430;28;20457;-53
2024/01/30 00:23:48;;;;;;;28.98;18.05;;;0.90;99.90;;;;;;5052437;28;20028;-53
2024/01/30 00:26:14;;;;;;;30.05;18.25;;;0.90;99.90;;;;;;5052274;28;20086;-53
2024/01/30 00:28:43;;;;;;;31.15;17.52;;;1.00;99.90;;;;;;5052205;28;20033;-53
2024/01/30 00:31:12;;;;;;;31.17;19.90;;;1.00;99.90;;;;;;5052290;28;20025;-53
2024/01/30 00:33:39;;;;;;;27.45;17.83;;;1.10;99.90;;;;;;5052225;28;20032;-53
2024/01/30 00:36:06;;;;;;;28.83;17.13;;;1.00;99.90;;;;;;5052251;28;20039;-53
2024/01/30 00:38:32;;;;;;;29.05;17.38;;;1.00;99.90;;;;;;5052145;28;20045;-53
2024/01/30 00:40:58;;;;;;;27.73;17.10;;;1.00;99.90;;;;;;5052230;28;20476;-53
2024/01/30 00:43:27;;;;;;;27.08;16.55;;;0.90;99.90;;;;;;5051935;28;20029;-53
2024/01/30 00:45:53;;;;;;;26.15;17.70;;;0.90;99.90;;;;;;5050235;28;20051;-53
2024/01/30 00:48:20;;;;;;;27.52;15.48;;;0.90;99.90;;;;;;5051893;28;20036;-53
2024/01/30 00:50:46;;;;;;;29.05;18.08;;;0.80;99.90;;;;;;5051696;28;20084;-53
2024/01/30 00:53:12;;;;;;;28.85;17.60;;;0.80;99.90;;;;;;5052104;28;20122;-53
2024/01/30 00:55:38;;;;;;;29.10;19.10;;;0.70;99.90;;;;;;5049865;28;20037;-53
2024/01/30 00:58:04;;;;;;;28.73;19.38;;;0.70;99.90;;;;;;5049913;28;20044;-53
2024/01/30 01:00:30;;;;;;;28.30;18.85;;;0.70;99.90;;;;;;5049876;28;20129;-53
2024/01/30 01:02:56;;;;;;;30.77;19.92;;;0.70;99.90;;;;;;5052024;28;20029;-53
2024/01/30 01:05:22;;;;;;;29.92;18.75;;;0.80;99.90;;;;;;5051946;28;20040;-53
2024/01/30 01:07:48;;;;;;;27.25;17.98;;;0.80;99.90;;;;;;5051867;28;20108;-53
2024/01/30 01:10:15;;;;;;;30.85;20.98;;;0.80;99.90;;;;;;5051856;28;20468;-53
2024/01/30 01:12:41;;;;;;;31.13;20.52;;;0.80;99.90;;;;;;5066554;28;20496;-53
2024/01/30 01:15:09;;;;;;;28.90;20.48;;;0.80;99.90;;;;;;5052022;28;20029;-53
2024/01/30 01:17:36;;;;;;;29.83;18.88;;;0.70;99.90;;;;;;5033353;28;20045;-53
2024/01/30 01:20:05;;;;;;;33.97;20.73;;;0.70;99.90;;;;;;5051836;28;20033;-53
2024/01/30 01:22:31;;;;;;;30.17;20.30;;;0.70;99.90;;;;;;5051953;28;20370;-53
2024/01/30 01:24:56;;;;;;;35.83;22.02;;;0.70;99.90;;;;;;5051752;28;20040;-53
2024/01/30 01:27:22;;;;;;;30.75;18.48;;;0.70;99.90;;;;;;5031565;28;20036;-53
2024/01/30 01:29:48;;;;;;;28.95;19.58;;;0.90;99.90;;;;;;5034387;28;20131;-53
2024/01/30 01:32:13;;;;;;;33.97;20.02;;;0.80;99.90;;;;;;5031789;28;20044;-53
2024/01/30 01:34:40;;;;;;;32.53;20.83;;;;;;;;;;5031775;28;20034;-54
2024/01/30 01:37:07;;;;;;;34.40;20.85;;;;;;;;;;5038000;28;20025;-54
2024/01/30 01:39:33;;;;;;;33.90;20.17;;;1.10;99.90;;;;;;5049465;28;20036;-53
2024/01/30 01:41:58;;;;;;;30.70;19.58;;;1.10;99.90;;;;;;5048867;28;20087;-54
2024/01/30 01:44:24;;;;;;;30.35;19.58;;;;;;;;;;5036912;28;20465;-53
2024/01/30 01:46:52;;;;;;;35.00;22.30;;;1.00;99.90;;;;;;5031602;28;20462;-53
2024/01/30 01:49:19;;;;;;;40.65;24.25;;;1.00;99.90;;;;;;5031698;28;20040;-53
2024/01/30 01:51:47;;;;;;;42.95;25.25;;;1.00;99.90;;;;;;5031249;28;20057;-53
2024/01/30 01:54:14;;;;;;;31.42;21.05;;;1.10;99.90;;;;;;5031664;28;20029;-53
2024/01/30 01:56:41;;;;;;;37.22;19.08;;;1.20;99.90;;;;;;5031710;28;20021;-54
2024/01/30 01:59:08;;;;;;;32.42;20.50;;;1.20;99.90;;;;;;5033229;28;20029;-53
2024/01/30 02:01:36;;;;;;;29.05;19.95;;;1.20;99.90;;;;;;5039212;28;20091;-53
2024/01/30 02:04:02;;;;;;;34.00;21.45;;;1.20;99.90;;;;;;5054555;28;20044;-53
2024/01/30 02:06:27;;;;;;;27.05;17.85;;;1.40;99.90;;;;;;5055038;28;20029;-53
2024/01/30 02:08:54;;;;;;;26.13;17.17;;;1.50;99.90;;;;;;5054953;28;20037;-53
2024/01/30 02:11:22;;;;;;;24.27;15.60;;;1.70;99.90;;;;;;5054798;28;20508;-54
2024/01/30 02:13:48;;;;;;;23.60;15.85;;;1.60;99.90;;;;;;5054781;28;20488;-54
2024/01/30 02:16:13;;;;;;;24.40;15.70;;;1.40;99.90;;;;;;5054972;28;20028;-53
2024/01/30 02:18:45;;;;;;;22.90;16.17;;;1.20;99.90;;;;;;5052641;28;20388;-53
2024/01/30 02:21:11;;;;;;;22.70;15.85;;;1.00;99.90;;;;;;5054718;28;20029;-53
2024/01/30 02:23:37;;;;;;;24.67;17.23;;;0.90;99.90;;;;;;5054717;28;20442;-53
2024/01/30 02:26:03;;;;;;;23.98;16.05;;;1.00;99.90;;;;;;5054585;28;20021;-53
2024/01/30 02:28:29;;;;;;;24.48;16.05;;;1.00;99.90;;;;;;5054596;28;20107;-53
2024/01/30 02:30:55;;;;;;;25.67;16.60;;;0.80;99.90;;;;;;5054451;28;20111;-54
2024/01/30 02:33:21;;;;;;;27.33;18.40;;;0.90;99.90;;;;;;5054524;28;20021;-53
2024/01/30 02:35:48;;;;;;;29.02;19.02;;;1.10;99.90;;;;;;5054550;28;20033;-53
2024/01/30 02:38:14;;;;;;;27.25;18.85;;;1.20;99.90;;;;;;5054439;28;20052;-54
2024/01/30 02:40:40;;;;;;;29.95;19.38;;;1.40;99.90;;;;;;5054320;28;20086;-53
2024/01/30 02:43:06;;;;;;;30.40;19.35;;;1.30;99.90;;;;;;5015178;28;20451;-53
2024/01/30 02:45:32;;;;;;;29.02;17.08;;;1.10;99.90;;;;;;5032026;28;20178;-53
2024/01/30 02:47:57;;;;;;;23.48;16.48;;;0.90;99.90;;;;;;5015333;28;20532;-54
2024/01/30 02:50:23;;;;;;;25.52;16.55;;;1.10;99.90;;;;;;5031273;28;20370;-53
2024/01/30 02:52:49;;;;;;;26.95;18.58;;;1.10;99.90;;;;;;5031856;28;20493;-53
2024/01/30 02:55:17;;;;;;;24.50;16.52;;;1.30;99.90;;;;;;5031754;28;20029;-53
2024/01/30 02:57:43;;;;;;;24.75;16.95;;;1.00;99.90;;;;;;5031899;28;20116;-53
2024/01/30 03:00:09;;;;;;;23.55;15.63;;;1.10;99.90;;;;;;5015275;28;20112;-54
2024/01/30 03:02:36;;;;;;;23.17;16.55;;;0.80;99.90;;;;;;5014828;28;20092;-53
2024/01/30 03:05:03;;;;;;;23.55;17.17;;;0.80;99.90;;;;;;5031933;28;20113;-53
2024/01/30 03:07:29;;;;;;;23.92;16.63;;;0.80;99.90;;;;;;5031786;28;20041;-53
2024/01/30 03:09:55;;;;;;;26.30;16.08;;;0.80;99.90;;;;;;5031837;28;20042;-53
2024/01/30 03:12:21;;;;;;;24.65;16.15;;;0.70;99.90;;;;;;5031365;28;20049;-53
2024/01/30 03:14:47;;;;;;;26.17;16.77;;;0.60;99.90;;;;;;5049065;28;20037;-53
2024/01/30 03:17:13;;;;;;;25.63;17.35;;;0.80;99.90;;;;;;5053624;28;20032;-54
2024/01/30 03:19:39;;;;;;;29.80;19.13;;;1.00;99.90;;;;;;5052269;28;20465;-53
2024/01/30 03:22:05;;;;;;;30.50;19.60;;;1.20;99.90;;;;;;5053568;28;20082;-54
2024/01/30 03:24:30;;;;;;;34.47;19.08;;;1.40;99.90;;;;;;5053473;28;20487;-53
2024/01/30 03:26:56;;;;;;;24.65;16.13;;;1.50;99.90;;;;;;5053540;28;20032;-53
2024/01/30 03:29:22;;;;;;;25.60;16.60;;;1.50;99.90;;;;;;5053441;28;20079;-54
2024/01/30 03:31:47;;;;;;;27.40;16.60;;;1.50;99.90;;;;;;5053246;28;20033;-54
2024/01/30 03:34:13;;;;;;;25.75;16.38;;;1.70;99.90;;;;;;5051151;28;20045;-54
2024/01/30 03:36:39;;;;;;;28.67;17.27;;;1.90;99.90;;;;;;5051195;28;20041;-53
2024/01/30 03:39:06;;;;;;;28.10;18.38;;;2.10;99.90;;;;;;5053271;28;20036;-53
2024/01/30 03:41:32;;;;;;;32.40;17.60;;;2.10;99.90;;;;;;5052958;28;20053;-53
2024/01/30 03:43:57;;;;;;;29.45;19.13;;;2.20;99.90;;;;;;5053172;28;20029;-53
2024/01/30 03:46:24;;;;;;;30.13;20.50;;;2.10;99.90;;;;;;5053312;28;20051;-54
2024/01/30 03:48:50;;;;;;;31.80;20.35;;;2.00;99.90;;;;;;5047701;28;20048;-54
2024/01/30 03:51:15;;;;;;;29.13;20.85;;;2.10;99.90;;;;;;5032861;28;20473;-54
2024/01/30 03:53:46;;;;;;;34.00;21.98;;;2.20;99.90;;;;;;5031747;28;20026;-53
2024/01/30 03:56:15;;;;;;;34.80;22.90;;;2.20;99.90;;;;;;5032941;28;20053;-53
2024/01/30 03:58:41;;;;;;;34.60;23.10;;;2.40;99.90;;;;;;5033044;28;20061;-53
2024/01/30 04:01:07;;;;;;;39.03;24.17;;;2.50;99.90;;;;;;5032854;28;20072;-53
2024/01/30 04:03:33;;;;;;;35.53;24.85;;;2.30;99.90;;;;;;5032729;28;20029;-54
2024/01/30 04:05:59;;;;;;;48.55;29.33;;;2.20;99.90;;;;;;5014271;28;20060;-53
2024/01/30 04:08:24;;;;;;;43.97;27.98;;;2.40;99.90;;;;;;5047347;28;20504;-53
2024/01/30 04:10:50;;;;;;;40.17;26.10;;;2.50;99.90;;;;;;5032643;28;20420;-54
2024/01/30 04:13:16;;;;;;;39.00;25.77;;;2.40;99.90;;;;;;5032740;28;20025;-53
2024/01/30 04:15:41;;;;;;;37.03;24.88;;;2.40;99.90;;;;;;5032611;28;20029;-53
2024/01/30 04:18:07;;;;;;;54.20;36.50;;;2.50;99.90;;;;;;5047081;28;20045;-54
2024/01/30 04:20:33;;;;;;;50.33;31.52;;;2.20;99.90;;;;;;5032547;28;20033;-53
2024/01/30 04:22:59;;;;;;;51.58;33.40;;;1.90;99.90;;;;;;5046654;28;20041;-53
2024/01/30 04:25:24;;;;;;;47.13;31.60;;;1.80;99.90;;;;;;5032518;28;20029;-54
2024/01/30 04:27:50;;;;;;;47.42;33.75;;;1.50;99.90;;;;;;5032476;28;20036;-53
2024/01/30 04:30:16;;;;;;;46.97;32.53;;;1.50;99.90;;;;;;5032569;28;20025;-53
2024/01/30 04:32:42;;;;;;;49.00;31.00;;;1.50;99.90;;;;;;5039497;28;20083;-53
2024/01/30 04:35:08;;;;;;;41.65;29.55;;;1.10;99.90;;;;;;5052252;28;20029;-53
2024/01/30 04:37:34;;;;;;;47.60;30.65;;;1.40;99.90;;;;;;5066853;28;20087;-54
2024/01/30 04:39:59;;;;;;;45.17;29.30;;;1.00;99.90;;;;;;5052216;28;20024;-53
2024/01/30 04:42:25;;;;;;;40.95;27.67;;;0.80;99.90;;;;;;5052079;28;20033;-53
2024/01/30 04:44:51;;;;;;;43.88;28.17;;;1.00;99.90;;;;;;5052144;28;20032;-53
2024/01/30 04:47:17;;;;;;;42.67;28.25;;;1.00;99.90;;;;;;5049986;28;20040;-53
2024/01/30 04:49:42;;;;;;;46.47;30.50;;;0.90;99.90;;;;;;5052065;28;20074;-53
2024/01/30 04:52:09;;;;;;;43.17;28.35;;;0.80;99.90;;;;;;5051910;28;20492;-53
2024/01/30 04:54:35;;;;;;;40.45;24.48;;;0.60;99.90;;;;;;5052038;28;20542;-53
2024/01/30 04:57:01;;;;;;;48.30;32.10;;;0.30;99.90;;;;;;5051910;28;20496;-54
2024/01/30 04:59:27;;;;;;;49.90;32.08;;;0.30;99.90;;;;;;5051991;28;20128;-53
2024/01/30 05:01:53;;;;;;;44.10;28.40;;;0.30;99.90;;;;;;5050774;28;20072;-53
2024/01/30 05:04:19;;;;;;;44.03;29.67;;;0.10;99.90;;;;;;5066470;28;20037;-53
2024/01/30 05:06:45;;;;;;;43.63;29.00;;;0.10;99.90;;;;;;5051842;28;20465;-53
2024/01/30 05:09:11;;;;;;;42.45;26.38;;;0.00;99.90;;;;;;5051945;28;20055;-54
2024/01/30 05:11:38;;;;;;;46.80;31.08;;;0.00;99.90;;;;;;5051473;28;20041;-53
2024/01/30 05:14:23;;;;;;;43.25;29.35;;;-0.10;99.90;;;;;;5069413;28;20403;-53
2024/01/30 05:16:49;;;;;;;43.13;29.90;;;-0.10;99.90;;;;;;5052320;28;20045;-53
2024/01/30 05:19:15;;;;;;;44.13;28.65;;;-0.10;99.90;;;;;;5036039;28;20560;-53
2024/01/30 05:21:41;;;;;;;49.08;29.25;;;-0.30;99.90;;;;;;5069047;28;20041;-53
2024/01/30 05:24:09;;;;;;;49.13;31.23;;;-0.20;99.90;;;;;;5035778;28;20063;-53
2024/01/30 05:26:35;;;;;;;52.58;33.60;;;0.00;99.90;;;;;;5068604;28;20076;-53
2024/01/30 05:29:01;;;;;;;54.65;33.95;;;0.30;99.90;;;;;;5069241;28;20471;-53
2024/01/30 05:31:27;;;;;;;63.38;38.00;;;0.50;99.90;;;;;;5068332;28;20044;-53
2024/01/30 05:33:52;;;;;;;47.95;28.77;;;0.60;99.90;;;;;;5070594;28;20044;-53
2024/01/30 05:36:19;;;;;;;44.67;29.40;;;;;;;;;;5038408;28;20115;-54
2024/01/30 05:38:44;;;;;;;47.75;29.70;;;0.30;99.90;;;;;;5072505;28;20450;-53
2024/01/30 05:41:10;;;;;;;51.05;31.20;;;0.50;99.90;;;;;;5073139;28;20043;-53
2024/01/30 05:43:36;;;;;;;44.13;29.38;;;0.50;99.90;;;;;;5073131;28;20098;-54
2024/01/30 05:46:01;;;;;;;50.90;31.95;;;0.60;99.90;;;;;;5036721;28;20102;-53
2024/01/30 05:48:27;;;;;;;40.33;28.38;;;0.50;99.90;;;;;;5052149;28;20503;-53
2024/01/30 05:50:53;;;;;;;45.85;29.75;;;;;;;;;;5053817;28;20123;-53
2024/01/30 05:53:19;;;;;;;47.22;28.35;;;0.30;99.90;;;;;;5051680;28;20072;-53
2024/01/30 05:55:44;;;;;;;47.33;29.10;;;0.00;99.90;;;;;;5057009;28;20064;-54
2024/01/30 05:58:11;;;;;;;46.20;30.73;;;0.20;99.90;;;;;;5054665;28;20025;-53
2024/01/30 06:00:36;;;;;;;50.92;33.95;;;0.40;99.90;;;;;;5018188;28;20465;-53
2024/01/30 06:03:02;;;;;;;68.97;41.75;;;0.50;99.90;;;;;;5054266;28;20103;-54
2024/01/30 06:05:28;;;;;;;90.28;52.70;;;0.80;99.90;;;;;;5054486;28;20029;-54
2024/01/30 06:07:54;;;;;;;75.78;45.78;;;0.90;99.90;;;;;;5053267;28;20427;-54
2024/01/30 06:10:20;;;;;;;58.80;36.75;;;;;;;;;;5053563;28;20052;-53
2024/01/30 06:12:46;;;;;;;53.55;35.55;;;;;;;;;;5054077;28;20095;-54
2024/01/30 06:15:12;;;;;;;51.60;32.65;;;;;;;;;;5054042;28;20086;-54
2024/01/30 06:17:39;;;;;;;47.50;31.88;;;1.40;99.90;;;;;;5054436;28;20031;-53
2024/01/30 06:20:05;;;;;;;52.05;31.92;;;1.30;99.90;;;;;;5054388;28;20025;-54
2024/01/30 06:22:31;;;;;;;45.08;31.45;;;1.40;99.90;;;;;;5050710;28;20037;-54
2024/01/30 06:24:57;;;;;;;50.17;30.65;;;1.40;99.90;;;;;;5054017;28;20017;-53
2024/01/30 06:27:23;;;;;;;51.25;33.03;;;1.40;99.90;;;;;;5053838;28;20132;-53
2024/01/30 06:29:48;;;;;;;73.10;46.35;;;1.20;99.90;;;;;;5051123;28;20017;-54
2024/01/30 06:32:14;;;;;;;66.85;43.15;;;;;;;;;;5050255;28;20049;-54
2024/01/30 06:34:43;;;;;;;60.58;41.22;;;;;;;;;;5053699;28;20392;-54
2024/01/30 06:37:09;;;;;;;58.63;38.45;;;1.40;99.90;;;;;;5050518;28;20033;-54
2024/01/30 06:39:34;;;;;;;53.15;35.03;;;1.90;99.90;;;;;;5052087;28;20091;-54
2024/01/30 06:42:00;;;;;;;52.20;35.10;;;2.50;99.90;;;;;;5038971;28;20029;-54
2024/01/30 06:44:26;;;;;;;46.97;33.08;;;;;;;;;;5034045;28;20033;-56
2024/01/30 06:46:52;;;;;;;41.90;29.08;;;6.30;99.90;;;;;;5034367;28;20026;-55
2024/01/30 06:49:18;;;;;;;41.63;27.17;;;;;;;;;;5048841;28;20045;-56
2024/01/30 06:51:44;;;;;;;39.13;27.52;;;;;;;;;;5033983;28;20507;-56
2024/01/30 06:54:10;;;;;;;40.22;26.60;;;;;;;;;;5034197;28;20248;-54
2024/01/30 06:56:37;;;;;;;34.67;24.98;;;;;;;;;;5034333;28;20480;-56
2024/01/30 06:59:03;;;;;;;37.08;27.85;;;;;;;;;;5034040;28;20021;-55
2024/01/30 07:01:29;;;;;;;32.85;26.73;;;14.50;99.90;;;;;;5067656;28;20048;-55
2024/01/30 07:03:56;;;;;;;33.90;26.25;;;;;;;;;;5050290;28;20021;-54
2024/01/30 07:06:22;;;;;;;36.92;26.60;;;15.40;86.00;;;;;;5053374;28;20025;-55
2024/01/30 07:08:49;;;;;;;87.72;59.42;;;16.10;84.60;;;;;;5053363;28;20025;-55
2024/01/30 07:11:22;;;;;;;35.00;24.90;;;;;;;;;;5053238;28;20571;-55
2024/01/30 07:13:48;;;;;;;30.90;21.48;;;;;;;;;;5053835;28;20024;-56
2024/01/30 07:16:15;;;;;;;35.22;26.75;;;;;;;;;;5053579;28;20044;-52
2024/01/30 07:18:40;;;;;;;55.70;40.65;;;17.70;79.80;;;;;;5051991;28;20396;-54
2024/01/30 07:21:07;;;;;;;45.55;35.38;;;;;;;;;;5053030;28;20046;-55
2024/01/30 07:23:34;;;;;;;28.75;22.48;;;;;;;;;;5034890;28;20045;-52
2024/01/30 07:26:00;;;;;;;26.17;22.27;;;;;;;;;;5053449;28;20094;-53
2024/01/30 07:28:26;;;;;;;27.90;21.17;;;18.60;75.10;;;;;;5053388;28;20037;-55
2024/01/30 07:30:52;;;;;;;26.40;23.00;;;17.00;75.10;;;;;;5053599;28;20150;-53
2024/01/30 07:33:18;;;;;;;33.92;27.17;;;;;;;;;;5053406;28;20044;-54
2024/01/30 07:35:46;;;;;;;31.80;24.88;;;;;;;;;;5038501;28;20033;-54
2024/01/30 07:38:12;;;;;;;29.50;23.90;;;;;;;;;;5049884;28;20361;-54
2024/01/30 07:40:38;;;;;;;32.33;24.27;;;17.20;76.00;;;;;;5053003;28;20021;-54
2024/01/30 07:43:04;;;;;;;34.33;26.08;;;17.30;76.60;;;;;;5050777;28;20040;-54
2024/01/30 07:45:33;;;;;;;36.42;28.55;;;19.10;76.50;;;;;;5067810;28;20041;-54
2024/01/30 07:47:59;;;;;;;39.03;28.75;;;20.10;74.80;;;;;;5051167;28;20045;-54
2024/01/30 07:50:25;;;;;;;33.60;27.67;;;;;;;;;;5052781;28;20040;-57
2024/01/30 07:52:54;;;;;;;31.27;27.27;;;21.20;75.10;;;;;;5052941;28;20059;-51
2024/01/30 07:55:31;;;;;;;34.90;31.13;;;;;;;;;;5052957;28;20119;-45
2024/01/30 07:57:57;;;;;;;39.28;31.15;;;21.10;99.00;;;;;;5051921;28;20104;-45
2024/01/30 08:00:23;;;;;;;33.70;27.95;;;;;;;;;;5041983;28;20131;-45
2024/01/30 08:02:55;;;;;;;31.42;27.60;;;;;;;;;;5062806;28;20020;-46
2024/01/30 08:05:22;;;;;;;;;;;;;;;;;;5063501;28;20036;-45
2024/01/30 08:07:48;;;;;;;37.53;31.42;;;22.60;77.70;;;;;;5061610;28;19912;-46
2024/01/30 08:10:15;;;;;;;35.13;29.05;;;;;;;;;;5060041;28;20508;-47
2024/01/30 08:12:41;;;;;;;36.60;32.10;;;;;;;;;;5048635;28;20170;-46
2024/01/30 08:15:07;;;;;;;33.63;28.58;;;22.80;78.60;;;;;;5042661;28;20017;-46
2024/01/30 08:17:34;;;;;;;34.85;31.15;;;22.70;69.40;;;;;;5015261;28;20033;-45
2024/01/30 08:20:00;;;;;;;35.75;30.23;;;;;;;;;;5042665;28;20033;-45
2024/01/30 08:22:26;;;;;;;32.45;29.08;;;23.30;72.80;;;;;;5040465;28;20477;-46
2024/01/30 08:24:51;;;;;;;33.50;29.92;;;22.70;68.70;;;;;;5046844;28;20146;-48
2024/01/30 08:27:17;;;;;;;34.67;31.02;;;22.90;68.60;;;;;;5041293;28;20029;-48
2024/01/30 08:29:43;;;;;;;34.63;29.80;;;;;;;;;;5047263;28;20044;-49
2024/01/30 08:32:10;;;;;;;38.78;31.27;;;23.20;73.80;;;;;;5052075;28;20476;-49
2024/01/30 08:34:35;;;;;;;48.85;43.20;;;22.80;69.30;;;;;;5048310;28;20029;-49
2024/01/30 08:37:01;;;;;;;40.60;35.55;;;21.20;68.10;;;;;;5037529;28;20028;-49
2024/01/30 08:39:27;;;;;;;37.10;33.13;;;18.70;70.30;;;;;;5047511;28;20059;-48
2024/01/30 08:41:53;;;;;;;34.17;30.13;;;18.20;72.20;;;;;;5052050;28;20032;-48
2024/01/30 08:44:20;;;;;;;35.20;30.50;;;19.20;73.30;;;;;;5051996;28;20032;-50
2024/01/30 08:46:46;;;;;;;36.47;30.63;;;;;;;;;;5051920;28;20395;-47
2024/01/30 08:49:13;;;;;;;33.70;29.58;;;21.20;93.90;;;;;;5049967;28;20052;-51
2024/01/30 08:51:39;;;;;;;33.28;29.73;;;20.00;70.20;;;;;;5050338;28;20048;-48
2024/01/30 08:54:05;;;;;;;31.70;26.92;;;18.90;70.90;;;;;;5051987;28;20072;-49
2024/01/30 08:56:31;;;;;;;32.92;28.52;;;;;;;;;;5052114;28;20049;-48
2024/01/30 08:58:57;;;;;;;31.35;25.27;;;;;;;;;;5051814;28;20029;-48
2024/01/30 09:01:24;;;;;;;28.92;24.00;;;21.50;70.40;;;;;;5051939;28;20431;-50
2024/01/30 09:03:50;;;;;;;35.38;27.52;;;20.10;70.20;;;;;;5051823;28;20472;-49
2024/01/30 09:06:16;;;;;;;26.70;23.80;;;;;;;;;;5052238;28;20035;-48
2024/01/30 09:08:42;;;;;;;33.50;27.13;;;20.90;70.30;;;;;;5052597;28;20480;-50
2024/01/30 09:11:12;;;;;;;29.95;26.17;;;20.90;70.60;;;;;;5053937;28;20052;-49
2024/01/30 09:13:39;;;;;;;32.42;26.45;;;;;;;;;;5048509;28;20111;-47
2024/01/30 09:16:05;;;;;;;30.02;25.23;;;22.10;69.20;;;;;;5044413;28;20045;-50
2024/01/30 09:18:31;;;;;;;28.27;24.30;;;21.70;69.80;;;;;;5046278;28;20032;-49
2024/01/30 09:20:58;;;;;;;28.50;25.38;;;;;;;;;;5044343;28;20100;-47
2024/01/30 09:23:24;;;;;;;32.33;28.83;;;22.30;68.70;;;;;;5044224;28;20465;-50
2024/01/30 09:25:50;;;;;;;31.52;28.33;;;20.60;70.10;;;;;;5046660;28;20044;-47
2024/01/30 09:28:17;;;;;;;30.90;27.58;;;18.90;70.40;;;;;;5050014;28;20054;-46
2024/01/30 09:30:43;;;;;;;28.60;25.58;;;18.50;73.00;;;;;;5035521;28;20025;-46
2024/01/30 09:33:09;;;;;;;28.75;25.77;;;;;;;;;;5055050;28;20136;-44
2024/01/30 09:35:36;;;;;;;27.55;24.67;;;;;;;;;;5042960;28;20485;-45
2024/01/30 09:38:03;;;;;;;27.92;24.80;;;21.50;70.40;;;;;;5044864;28;20503;-46
2024/01/30 09:40:28;;;;;;;28.17;25.20;;;20.90;70.40;;;;;;5049521;28;20024;-48
2024/01/30 09:42:55;;;;;;;28.13;25.20;;;21.50;70.90;;;;;;5046018;28;20149;-48
2024/01/30 09:45:25;;;;;;;26.00;23.35;;;21.50;72.00;;;;;;5047986;28;20051;-49
2024/01/30 09:47:51;;;;;;;27.75;23.48;;;;;;;;;;5048603;28;20095;-49
2024/01/30 09:50:17;;;;;;;27.13;23.02;;;21.90;69.20;;;;;;5051327;28;20040;-51
2024/01/30 09:52:44;;;;;;;26.10;23.08;;;;;;;;;;5044306;28;20033;-47
2024/01/30 09:55:10;;;;;;;27.63;24.58;;;22.30;69.30;;;;;;5043419;28;20372;-48
2024/01/30 09:57:37;;;;;;;24.40;21.90;;;;;;;;;;5054749;28;20031;-49
2024/01/30 10:00:04;;;;;;;26.85;23.45;;;;;;;;;;5051419;28;20120;-49
2024/01/30 10:02:32;;;;;;;25.75;23.15;;;;;;;;;;5043087;28;20033;-47
2024/01/30 10:04:58;;;;;;;26.05;23.23;;;;;;;;;;5046436;28;20024;-49
2024/01/30 10:07:24;;;;;;;24.40;20.55;;;22.60;69.10;;;;;;5043550;28;20057;-47
2024/01/30 10:09:49;;;;;;;22.90;20.52;;;21.80;69.50;;;;;;5043088;28;20507;-49
2024/01/30 10:12:16;;;;;;;21.42;19.13;;;21.70;69.20;;;;;;5043625;28;20195;-47
2024/01/30 10:14:43;;;;;;;44.95;31.77;;;21.70;70.30;;;;;;5046369;28;20443;-46
2024/01/30 10:17:12;;;;;;;22.00;18.63;;;21.50;69.40;;;;;;5050440;28;20037;-46
2024/01/30 10:19:39;;;;;;;17.73;15.80;;;19.60;70.30;;;;;;5054148;28;20033;-45
2024/01/30 10:22:05;;;;;;;19.17;16.35;;;19.90;72.20;;;;;;5054609;28;20025;-49
2024/01/30 10:24:33;;;;;;;21.88;16.42;;;19.80;71.80;;;;;;5043805;28;20044;-48
2024/01/30 10:26:58;;;;;;;17.17;15.40;;;19.20;71.30;;;;;;5040768;28;20037;-48
2024/01/30 10:29:24;;;;;;;20.70;17.92;;;19.40;72.10;;;;;;5041691;28;20413;-45
2024/01/30 10:32:04;;;;;;;20.17;18.17;;;17.90;71.60;;;;;;5042581;28;20037;-47
2024/01/30 10:34:30;;;;;;;20.52;17.65;;;17.20;72.80;;;;;;5039746;28;20044;-45
2024/01/30 10:37:16;;;;;;;26.17;20.70;;;17.10;74.20;;;;;;5034100;28;20033;-47
2024/01/30 10:39:44;;;;;;;38.55;33.28;;;15.60;75.80;;;;;;5034168;28;20037;-46
2024/01/30 10:42:15;;;;;;;26.70;22.40;;;17.10;76.10;;;;;;5048703;28;20558;-47
2024/01/30 10:45:01;;;;;;;26.83;19.58;;;18.10;75.60;;;;;;5034334;28;20041;-45
2024/01/30 10:47:28;;;;;;;53.50;37.40;;;18.30;75.30;;;;;;5035520;28;20132;-44
2024/01/30 10:49:55;;;;;;;18.80;16.95;;;19.20;77.70;;;;;;5033813;28;20407;-45
2024/01/30 10:52:27;;;;;;;19.48;16.15;;;17.70;73.30;;;;;;5053472;28;20072;-45
2024/01/30 10:54:54;;;;;;;25.52;22.98;;;17.40;74.00;;;;;;5046319;28;20037;-45
2024/01/30 10:57:23;;;;;;;15.65;14.05;;;17.20;74.40;;;;;;5053917;28;20480;-48
2024/01/30 10:59:52;;;;;;;16.02;14.32;;;18.50;73.80;;;;;;5049796;28;20393;-46
2024/01/30 11:02:19;;;;;;;18.63;14.73;;;;;;;;;;5034446;28;20128;-47
2024/01/30 11:04:45;;;;;;;18.05;14.93;;;17.70;76.80;;;;;;5053456;28;20032;-44
2024/01/30 11:07:18;;;;;;;16.15;13.95;;;18.10;75.90;;;;;;5053829;28;20029;-48
2024/01/30 11:09:57;;;;;;;16.95;14.90;;;17.70;73.80;;;;;;5065549;28;20049;-48
2024/01/30 11:12:28;;;;;;;19.02;14.02;;;18.30;73.50;;;;;;5051979;28;20063;-46
2024/01/30 11:15:10;;;;;;;22.92;18.95;;;18.00;72.70;;;;;;5026645;28;20127;-47
2024/01/30 11:17:54;;;;;;;14.55;12.43;;;16.80;72.90;;;;;;5047580;28;20041;-46
2024/01/30 11:20:35;;;;;;;21.35;16.42;;;17.00;73.10;;;;;;5053510;28;20040;-45
2024/01/30 11:23:05;;;;;;;15.82;14.13;;;16.50;74.50;;;;;;5052919;28;20104;-44
2024/01/30 11:25:32;;;;;;;14.63;11.15;;;16.90;73.90;;;;;;5053436;28;20372;-46
2024/01/30 11:27:58;;;;;;;15.50;11.02;;;16.20;73.40;;;;;;5049007;28;20489;-48
2024/01/30 11:30:25;;;;;;;12.75;11.45;;;16.90;73.70;;;;;;5053111;28;20120;-48
2024/01/30 11:33:08;;;;;;;12.80;9.98;;;17.80;73.80;;;;;;5052326;28;20132;-48
2024/01/30 11:35:52;;;;;;;11.93;9.88;;;16.40;72.00;;;;;;5050555;28;20029;-44
2024/01/30 11:38:18;;;;;;;15.02;13.13;;;16.50;72.20;;;;;;5051187;28;20082;-47
2024/01/30 11:40:44;;;;;;;14.07;11.40;;;16.70;72.10;;;;;;5051135;28;20041;-44
2024/01/30 11:43:10;;;;;;;13.00;10.73;;;15.70;73.00;;;;;;5053179;28;20017;-47
2024/01/30 11:45:36;;;;;;;13.73;12.10;;;16.50;73.00;;;;;;5052128;28;20032;-50
2024/01/30 11:48:03;;;;;;;12.75;10.70;;;17.00;72.90;;;;;;5050991;28;20424;-45
2024/01/30 11:50:33;;;;;;;14.70;11.32;;;17.30;71.90;;;;;;5033925;28;20512;-47
2024/01/30 11:53:02;;;;;;;12.27;10.07;;;17.00;71.60;;;;;;5051467;28;20037;-45
2024/01/30 11:55:29;;;;;;;10.90;9.80;;;17.00;71.80;;;;;;5052284;28;20025;-44
2024/01/30 11:57:57;;;;;;;12.55;9.93;;;16.40;71.60;;;;;;5041193;28;20018;-47
2024/01/30 12:00:22;;;;;;;14.00;11.88;;;15.80;72.50;;;;;;5030855;28;20049;-48
2024/01/30 12:02:55;;;;;;;12.45;8.25;;;16.60;73.60;;;;;;5030677;28;20057;-52
2024/01/30 12:05:25;;;;;;;8.23;6.97;;;15.90;71.10;;;;;;5035246;28;20432;-50
2024/01/30 12:07:52;;;;;;;10.43;8.32;;;15.80;71.30;;;;;;5047209;28;20040;-46
2024/01/30 12:10:18;;;;;;;13.10;9.85;;;14.70;71.80;;;;;;5032843;28;20034;-44
2024/01/30 12:12:47;;;;;;;12.57;9.48;;;15.30;73.00;;;;;;5032590;28;20041;-48
2024/01/30 12:15:13;;;;;;;18.20;10.57;;;;;;;;;;5041826;28;20458;-48
2024/01/30 12:17:39;;;;;;;10.73;8.00;;;15.40;98.70;;;;;;5052420;28;20468;-46
2024/01/30 12:20:06;;;;;;;11.02;9.38;;;14.80;73.60;;;;;;5051196;28;20034;-47
2024/01/30 12:22:48;;;;;;;11.65;8.77;;;14.70;73.30;;;;;;5034498;28;20049;-45
2024/01/30 12:25:16;;;;;;;7.00;4.72;;;15.20;73.10;;;;;;5016639;28;20077;-44
2024/01/30 12:27:43;;;;;;;8.20;6.55;;;14.20;72.00;;;;;;5010279;28;20056;-45
2024/01/30 12:30:11;;;;;;;9.25;7.65;;;13.40;73.00;;;;;;5020278;28;20033;-45
2024/01/30 12:32:37;;;;;;;8.73;6.60;;;;;;;;;;5029596;28;20168;-46
2024/01/30 12:35:04;;;;;;;15.00;9.35;;;;;;;;;;5026100;28;20041;-47
2024/01/30 12:37:32;;;;;;;12.07;9.15;;;;;;;;;;5013341;28;20040;-47
2024/01/30 12:39:59;;;;;;;12.93;9.00;;;;;;;;;;5029955;28;20036;-46
2024/01/30 12:42:27;;;;;;;11.20;7.55;;;;;;;;;;5029582;28;20037;-48
2024/01/30 12:44:53;;;;;;;10.57;8.20;;;;;;;;;;5029965;28;20465;-49
2024/01/30 12:47:19;;;;;;;12.18;7.85;;;;;;;;;;5016673;28;20038;-50
2024/01/30 12:49:44;;;;;;;8.80;5.35;;;13.60;99.40;;;;;;5010059;28;20129;-48